createdAt,value
2018-06-30T00:00:39.061Z,76.20
2018-06-30T00:03:07.620Z,76.51
2018-06-30T00:05:36.142Z,79.00
2018-06-30T00:08:04.780Z,78.61
2018-06-30T00:10:33.375Z,78.58
2018-06-30T00:13:02.292Z,78.37
2018-06-30T00:15:30.829Z,77.04
2018-06-30T00:17:59.459Z,76.69
2018-06-30T00:20:28.005Z,76.56
2018-06-30T00:22:56.605Z,77.53
2018-06-30T00:25:25.169Z,78.17
2018-06-30T00:27:55.724Z,76.47
2018-06-30T00:30:25.328Z,77.42
2018-06-30T00:32:54.613Z,77.16
2018-06-30T00:35:23.212Z,77.23
2018-06-30T00:37:51.808Z,77.25
2018-06-30T00:40:20.377Z,76.95
2018-06-30T00:42:48.920Z,78.80
2018-06-30T00:45:17.437Z,78.09
2018-06-30T00:47:46.522Z,76.46
2018-06-30T00:50:15.042Z,77.66
2018-06-30T00:52:43.580Z,77.13
2018-06-30T00:55:12.147Z,78.14
2018-06-30T00:57:40.701Z,79.14
2018-06-30T01:00:09.372Z,78.54
2018-06-30T01:02:37.913Z,79.91
2018-06-30T01:05:06.465Z,79.35
2018-06-30T01:07:35.060Z,79.70
2018-06-30T01:10:03.654Z,77.95
2018-06-30T01:12:32.212Z,79.28
2018-06-30T01:15:00.725Z,80.18
2018-06-30T01:17:29.276Z,79.06
2018-06-30T01:19:58.049Z,79.15
2018-06-30T01:22:26.614Z,79.27
2018-06-30T01:24:55.116Z,79.30
2018-06-30T01:27:23.636Z,79.53
2018-06-30T01:29:52.188Z,79.81
2018-06-30T01:32:20.698Z,78.42
2018-06-30T01:34:49.232Z,78.93
2018-06-30T01:37:17.761Z,80.07
2018-06-30T01:39:46.653Z,80.65
2018-06-30T01:42:15.188Z,80.61
2018-06-30T01:44:45.892Z,80.95
2018-06-30T01:47:14.412Z,80.77
2018-06-30T01:49:42.992Z,81.26
2018-06-30T01:52:11.508Z,81.19
2018-06-30T01:54:40.060Z,80.74
2018-06-30T01:57:08.592Z,80.68
2018-06-30T01:59:37.531Z,80.21
2018-06-30T02:02:06.080Z,80.97
2018-06-30T02:04:34.639Z,80.58
2018-06-30T02:07:03.164Z,79.37
2018-06-30T02:09:31.752Z,78.26
2018-06-30T02:12:00.296Z,78.67
2018-06-30T02:14:28.879Z,78.85
2018-06-30T02:16:57.416Z,79.81
2018-06-30T02:19:25.996Z,81.70
2018-06-30T02:21:54.658Z,80.75
2018-06-30T02:24:24.225Z,80.77
2018-06-30T02:26:53.249Z,80.87
2018-06-30T02:29:22.156Z,80.75
2018-06-30T02:31:50.668Z,79.39
2018-06-30T02:34:19.232Z,79.73
2018-06-30T02:36:48.520Z,80.57
2018-06-30T02:39:17.099Z,79.79
2018-06-30T02:41:45.641Z,78.45
2018-06-30T02:44:14.316Z,78.15
2018-06-30T02:46:42.844Z,79.13
2018-06-30T02:49:11.385Z,78.97
2018-06-30T02:51:39.905Z,78.58
2018-06-30T02:54:08.458Z,78.57
2018-06-30T02:56:36.970Z,79.15
2018-06-30T02:59:05.517Z,79.48
2018-06-30T03:01:34.031Z,78.74
2018-06-30T03:04:02.600Z,79.39
2018-06-30T03:06:31.108Z,80.61
2018-06-30T03:08:59.941Z,81.13
2018-06-30T03:11:28.469Z,81.25
2018-06-30T03:13:57.026Z,80.90
2018-06-30T03:16:25.555Z,80.71
2018-06-30T03:18:54.060Z,82.51
2018-06-30T03:21:22.608Z,82.78
2018-06-30T03:23:51.126Z,82.42
2018-06-30T03:26:19.673Z,82.01
2018-06-30T03:28:48.665Z,80.87
2018-06-30T03:31:17.483Z,80.29
2018-06-30T03:33:45.992Z,80.56
2018-06-30T03:36:14.544Z,79.85
2018-06-30T03:38:43.061Z,80.95
2018-06-30T03:41:11.629Z,80.54
2018-06-30T03:43:40.141Z,81.16
2018-06-30T03:46:08.728Z,80.33
2018-06-30T03:48:37.215Z,80.65
2018-06-30T03:51:06.027Z,80.68
2018-06-30T03:53:34.529Z,81.63
2018-06-30T03:56:03.152Z,80.85
2018-06-30T03:58:31.668Z,81.53
2018-06-30T04:01:00.218Z,81.48
2018-06-30T04:03:28.799Z,81.13
2018-06-30T04:05:57.340Z,80.90
2018-06-30T04:08:25.889Z,81.60
2018-06-30T04:10:54.436Z,81.75
2018-06-30T04:13:22.949Z,81.62
2018-06-30T04:15:51.504Z,80.41
2018-06-30T04:18:20.015Z,79.47
2018-06-30T04:20:48.951Z,80.64
2018-06-30T04:23:17.461Z,78.62
2018-06-30T04:25:46.005Z,80.21
2018-06-30T04:28:14.557Z,80.65
2018-06-30T04:30:43.093Z,78.98
2018-06-30T04:33:11.613Z,79.05
2018-06-30T04:35:40.196Z,77.81
2018-06-30T04:38:08.780Z,78.20
2018-06-30T04:40:37.345Z,77.76
2018-06-30T04:43:05.928Z,77.49
2018-06-30T04:45:34.465Z,78.55
2018-06-30T04:48:03.004Z,78.07
2018-06-30T04:50:31.585Z,78.64
2018-06-30T04:53:00.089Z,78.31
2018-06-30T04:55:28.627Z,80.40
2018-06-30T04:57:57.149Z,77.24
2018-06-30T05:00:25.707Z,76.04
2018-06-30T05:02:54.517Z,76.03
2018-06-30T05:05:23.053Z,75.62
2018-06-30T05:07:51.648Z,74.38
2018-06-30T05:10:20.152Z,73.16
2018-06-30T05:12:49.134Z,73.11
2018-06-30T05:15:17.625Z,74.49
2018-06-30T05:17:46.244Z,74.82
2018-06-30T05:20:14.748Z,74.29
2018-06-30T05:22:43.307Z,73.80
2018-06-30T05:25:11.812Z,74.43
2018-06-30T05:27:40.349Z,77.48
2018-06-30T05:30:08.916Z,75.36
2018-06-30T05:32:37.468Z,72.99
2018-06-30T05:35:06.004Z,72.46
2018-06-30T05:37:34.544Z,69.41
2018-06-30T05:40:03.170Z,69.38
2018-06-30T05:42:31.710Z,70.15
2018-06-30T05:45:00.217Z,70.58
2018-06-30T05:47:28.772Z,70.24
2018-06-30T05:49:57.289Z,70.12
2018-06-30T05:52:25.820Z,70.74
2018-06-30T05:54:54.484Z,70.44
2018-06-30T05:57:23.037Z,70.57
2018-06-30T05:59:51.568Z,71.32
2018-06-30T06:02:20.137Z,70.58
2018-06-30T06:04:49.424Z,70.26
2018-06-30T06:07:18.098Z,69.79
2018-06-30T06:09:46.644Z,70.10
2018-06-30T06:12:15.523Z,70.74
2018-06-30T06:14:44.037Z,67.14
2018-06-30T06:17:12.586Z,67.19
2018-06-30T06:19:41.100Z,64.14
2018-06-30T06:22:09.685Z,64.03
2018-06-30T06:24:38.272Z,63.90
2018-06-30T06:27:06.827Z,63.01
2018-06-30T06:29:35.348Z,60.46
2018-06-30T06:32:03.896Z,60.44
2018-06-30T06:34:32.433Z,62.19
2018-06-30T06:37:00.996Z,60.82
2018-06-30T06:39:29.520Z,59.94
2018-06-30T06:41:58.157Z,59.65
2018-06-30T06:44:26.683Z,60.38
2018-06-30T06:46:55.296Z,60.19
2018-06-30T06:49:25.831Z,59.00
2018-06-30T06:51:54.472Z,59.45
2018-06-30T06:54:23.084Z,58.64
2018-06-30T06:56:51.720Z,58.65
2018-06-30T06:59:20.584Z,59.19
2018-06-30T07:01:49.492Z,58.09
2018-06-30T07:04:18.066Z,58.35
2018-06-30T07:06:46.592Z,58.38
2018-06-30T07:09:15.181Z,57.81
2018-06-30T07:11:43.717Z,57.34
2018-06-30T07:14:12.276Z,57.96
2018-06-30T07:16:40.788Z,57.36
2018-06-30T07:19:09.390Z,56.99
2018-06-30T07:21:37.908Z,56.97
2018-06-30T07:24:13.076Z,56.07
2018-06-30T07:26:41.596Z,56.43
2018-06-30T07:29:10.180Z,57.77
2018-06-30T07:31:38.718Z,56.14
2018-06-30T07:34:07.277Z,54.09
2018-06-30T07:36:35.809Z,54.55
2018-06-30T07:39:06.868Z,55.62
2018-06-30T07:41:35.389Z,54.64
2018-06-30T07:44:04.240Z,53.58
2018-06-30T07:46:32.884Z,54.41
2018-06-30T07:49:02.208Z,52.98
2018-06-30T07:51:30.792Z,53.01
2018-06-30T07:53:59.867Z,52.68
2018-06-30T07:56:28.296Z,53.10
2018-06-30T07:58:56.881Z,52.40
2018-06-30T08:01:25.408Z,52.79
2018-06-30T08:03:54.138Z,53.13
2018-06-30T08:06:22.741Z,52.64
2018-06-30T08:08:52.684Z,53.36
2018-06-30T08:11:22.020Z,54.04
2018-06-30T08:13:56.383Z,53.12
2018-06-30T08:16:31.984Z,52.18
2018-06-30T08:19:01.879Z,51.62
2018-06-30T08:21:32.506Z,52.12
2018-06-30T08:24:05.852Z,52.39
2018-06-30T08:26:36.328Z,53.93
2018-06-30T08:29:06.250Z,51.61
2018-06-30T08:31:39.411Z,52.25
2018-06-30T08:34:08.021Z,52.74
2018-06-30T08:36:42.919Z,51.26
2018-06-30T08:39:17.615Z,53.89
2018-06-30T08:41:49.757Z,52.79
2018-06-30T08:44:22.725Z,51.66
2018-06-30T08:46:57.294Z,52.88
2018-06-30T08:49:30.821Z,52.81
2018-06-30T08:52:05.261Z,52.46
2018-06-30T08:54:34.036Z,51.88
2018-06-30T08:57:11.164Z,51.29
2018-06-30T08:59:46.927Z,49.57
2018-06-30T09:02:19.854Z,50.23
2018-06-30T09:04:49.791Z,51.27
2018-06-30T09:07:24.265Z,52.42
2018-06-30T09:09:56.469Z,50.03
2018-06-30T09:12:28.005Z,49.48
2018-06-30T09:14:57.300Z,49.46
2018-06-30T09:17:31.395Z,49.71
2018-06-30T09:20:04.528Z,48.01
2018-06-30T09:22:33.935Z,47.39
2018-06-30T09:25:05.743Z,47.29
2018-06-30T09:27:36.357Z,46.25
2018-06-30T09:30:08.644Z,48.77
2018-06-30T09:32:38.989Z,46.08
2018-06-30T09:35:09.192Z,45.66
2018-06-30T09:37:38.054Z,47.06
2018-06-30T09:40:08.229Z,46.50
2018-06-30T09:42:38.412Z,48.79
2018-06-30T09:45:08.673Z,47.72
2018-06-30T09:47:41.953Z,46.81
2018-06-30T09:50:14.207Z,46.58
2018-06-30T09:52:50.164Z,46.59
2018-06-30T09:55:21.841Z,47.24
2018-06-30T09:57:51.021Z,47.03
2018-06-30T10:00:29.171Z,45.61
2018-06-30T10:03:00.860Z,43.94
2018-06-30T10:05:34.268Z,44.54
2018-06-30T10:08:08.327Z,45.14
2018-06-30T10:10:40.737Z,45.50
2018-06-30T10:13:10.756Z,47.95
2018-06-30T10:15:44.518Z,45.97
2018-06-30T10:18:13.225Z,44.62
2018-06-30T10:20:48.318Z,42.80
2018-06-30T10:23:23.690Z,45.43
2018-06-30T10:25:56.647Z,44.86
2018-06-30T10:28:28.587Z,43.83
2018-06-30T10:31:01.783Z,44.19
2018-06-30T10:33:38.064Z,42.60
2018-06-30T10:36:10.407Z,42.18
2018-06-30T10:38:40.184Z,43.23
2018-06-30T10:41:12.441Z,41.51
2018-06-30T10:43:45.164Z,41.76
2018-06-30T10:46:16.361Z,42.21
2018-06-30T10:48:46.989Z,42.83
2018-06-30T10:51:17.899Z,42.23
2018-06-30T10:53:52.504Z,42.26
2018-06-30T10:56:25.196Z,41.90
2018-06-30T10:58:57.665Z,41.53
2018-06-30T11:01:27.012Z,42.15
2018-06-30T11:04:01.949Z,41.66
2018-06-30T11:06:31.456Z,41.99
2018-06-30T11:09:01.385Z,40.57
2018-06-30T11:11:33.857Z,39.66
2018-06-30T11:14:07.710Z,41.44
2018-06-30T11:16:38.465Z,40.39
2018-06-30T11:19:14.417Z,41.39
2018-06-30T11:21:50.062Z,41.02
2018-06-30T11:24:24.643Z,39.27
2018-06-30T11:26:59.849Z,39.87
2018-06-30T11:29:29.337Z,39.27
2018-06-30T11:31:58.725Z,40.22
2018-06-30T11:34:28.741Z,38.96
2018-06-30T11:37:06.485Z,37.75
2018-06-30T11:39:43.070Z,39.12
2018-06-30T11:42:19.197Z,37.55
2018-06-30T11:44:58.245Z,36.33
2018-06-30T11:47:35.211Z,38.94
2018-06-30T11:50:14.476Z,38.18
2018-06-30T11:52:50.418Z,39.18
2018-06-30T11:55:28.032Z,38.75
2018-06-30T11:58:02.893Z,37.72
2018-06-30T12:00:38.828Z,37.28
2018-06-30T12:03:08.369Z,38.16
2018-06-30T12:05:43.965Z,38.47
2018-06-30T12:08:15.581Z,39.31
2018-06-30T12:10:45.105Z,39.35
2018-06-30T12:13:20.225Z,40.50
2018-06-30T12:15:59.039Z,41.26
2018-06-30T12:18:31.576Z,38.57
2018-06-30T12:21:00.125Z,37.42
2018-06-30T12:23:29.888Z,37.39
2018-06-30T12:25:59.915Z,37.77
2018-06-30T12:28:28.736Z,36.92
2018-06-30T12:30:57.420Z,37.81
2018-06-30T12:33:26.300Z,38.72
2018-06-30T12:35:54.820Z,39.24
2018-06-30T12:38:24.876Z,37.09
2018-06-30T12:40:53.839Z,37.10
2018-06-30T12:43:22.585Z,36.73
2018-06-30T12:45:51.100Z,38.46
2018-06-30T12:48:19.644Z,39.25
2018-06-30T12:50:48.172Z,39.03
2018-06-30T12:53:16.722Z,39.83
2018-06-30T12:55:45.253Z,38.55
2018-06-30T12:58:13.849Z,35.45
2018-06-30T13:00:42.779Z,38.17
2018-06-30T13:03:11.408Z,37.99
2018-06-30T13:05:40.476Z,36.34
2018-06-30T13:08:09.125Z,36.30
2018-06-30T13:10:37.929Z,37.72
2018-06-30T13:13:06.506Z,37.58
2018-06-30T13:15:36.430Z,38.37
2018-06-30T13:18:05.577Z,36.89
2018-06-30T13:20:34.144Z,34.24
2018-06-30T13:23:02.872Z,36.66
2018-06-30T13:25:31.441Z,39.12
2018-06-30T13:28:00.609Z,35.62
2018-06-30T13:30:29.136Z,36.06
2018-06-30T13:32:58.068Z,37.56
2018-06-30T13:35:26.877Z,38.11
2018-06-30T13:37:55.529Z,38.08
2018-06-30T13:40:24.352Z,36.47
2018-06-30T13:42:54.016Z,36.50
2018-06-30T13:45:22.752Z,36.10
2018-06-30T13:47:51.288Z,38.70
2018-06-30T13:50:20.157Z,37.57
2018-06-30T13:52:49.917Z,38.08
2018-06-30T13:55:19.402Z,36.36
2018-06-30T13:57:47.949Z,34.54
2018-06-30T14:00:18.949Z,35.25
2018-06-30T14:02:47.677Z,35.41
2018-06-30T14:05:17.308Z,36.31
2018-06-30T14:07:46.013Z,36.02
2018-06-30T14:10:15.505Z,36.87
2018-06-30T14:12:45.711Z,35.73
2018-06-30T14:15:14.727Z,35.79
2018-06-30T14:17:43.293Z,34.97
2018-06-30T14:20:11.880Z,35.72
2018-06-30T14:22:40.420Z,36.50
2018-06-30T14:25:09.041Z,35.67
2018-06-30T14:27:37.583Z,34.35
2018-06-30T14:30:08.763Z,34.24
2018-06-30T14:32:37.280Z,33.97
2018-06-30T14:35:05.969Z,33.72
2018-06-30T14:37:34.552Z,34.61
2018-06-30T14:40:03.125Z,34.33
2018-06-30T14:42:31.719Z,34.67
2018-06-30T14:45:00.272Z,34.58
2018-06-30T14:47:28.800Z,35.13
2018-06-30T14:49:57.360Z,34.55
2018-06-30T14:52:25.898Z,34.52
2018-06-30T14:54:54.448Z,35.10
2018-06-30T14:57:22.980Z,34.37
2018-06-30T14:59:51.521Z,34.82
2018-06-30T15:02:20.056Z,33.78
2018-06-30T15:04:48.605Z,34.81
2018-06-30T15:07:17.132Z,33.93
2018-06-30T15:09:48.616Z,33.10
2018-06-30T15:12:17.129Z,34.83
2018-06-30T15:14:45.704Z,32.83
2018-06-30T15:17:14.264Z,34.82
2018-06-30T15:19:42.832Z,34.53
2018-06-30T15:22:11.360Z,34.80
2018-06-30T15:24:40.011Z,32.99
2018-06-30T15:27:08.522Z,33.24
2018-06-30T15:29:37.339Z,33.51
2018-06-30T15:32:06.309Z,33.15
2018-06-30T15:34:34.849Z,32.63
2018-06-30T15:37:03.505Z,33.19
2018-06-30T15:39:32.070Z,33.22
2018-06-30T15:42:00.697Z,33.38
2018-06-30T15:44:29.229Z,33.22
2018-06-30T15:46:57.789Z,34.46
2018-06-30T15:49:26.308Z,33.81
2018-06-30T15:51:58.714Z,33.99
2018-06-30T15:54:27.457Z,34.25
2018-06-30T15:56:56.964Z,33.53
2018-06-30T15:59:25.525Z,32.30
2018-06-30T16:01:54.249Z,32.59
2018-06-30T16:04:23.320Z,31.68
2018-06-30T16:06:51.861Z,32.66
2018-06-30T16:09:20.408Z,32.96
2018-06-30T16:11:48.960Z,32.37
2018-06-30T16:14:17.479Z,33.51
2018-06-30T16:16:46.049Z,34.27
2018-06-30T16:19:14.565Z,33.33
2018-06-30T16:21:43.697Z,33.45
2018-06-30T16:24:12.541Z,32.93
2018-06-30T16:26:43.194Z,32.01
2018-06-30T16:29:15.261Z,31.82
2018-06-30T16:31:44.580Z,33.05
2018-06-30T16:34:13.813Z,32.88
2018-06-30T16:36:42.371Z,32.11
2018-06-30T16:39:12.112Z,32.95
2018-06-30T16:41:40.740Z,31.79
2018-06-30T16:44:09.311Z,32.87
2018-06-30T16:46:38.321Z,30.44
2018-06-30T16:49:07.326Z,23.11
2018-06-30T16:51:35.908Z,23.20
2018-06-30T16:54:04.544Z,22.92
2018-06-30T16:56:33.104Z,22.13
2018-06-30T16:59:02.485Z,19.95
2018-06-30T17:01:31.093Z,19.96
2018-06-30T17:03:59.647Z,20.24
2018-06-30T17:06:28.293Z,21.29
2018-06-30T17:08:56.861Z,19.85
2018-06-30T17:11:25.473Z,19.02
2018-06-30T17:13:53.977Z,20.04
2018-06-30T17:16:22.524Z,20.44
2018-06-30T17:18:51.739Z,21.46
2018-06-30T17:21:28.602Z,19.43
2018-06-30T17:23:57.719Z,19.69
2018-06-30T17:26:29.304Z,19.31
2018-06-30T17:29:05.666Z,20.12
2018-06-30T17:31:35.481Z,20.44
2018-06-30T17:34:04.666Z,19.99
2018-06-30T17:36:33.267Z,19.73
2018-06-30T17:39:02.457Z,19.73
2018-06-30T17:41:31.025Z,20.25
2018-06-30T17:43:59.555Z,20.46
2018-06-30T17:46:28.105Z,20.57
2018-06-30T17:49:03.322Z,20.52
2018-06-30T17:51:31.892Z,20.61
2018-06-30T17:54:00.437Z,21.07
2018-06-30T17:56:28.953Z,22.06
2018-06-30T17:58:59.511Z,24.15
2018-06-30T18:01:37.764Z,22.74
2018-06-30T18:04:07.078Z,23.83
2018-06-30T18:06:37.361Z,25.65
2018-06-30T18:09:09.808Z,27.51
2018-06-30T18:11:38.972Z,29.42
2018-06-30T18:14:08.848Z,30.38
2018-06-30T18:16:38.200Z,30.19
2018-06-30T18:19:07.143Z,30.66
2018-06-30T18:21:41.514Z,31.46
2018-06-30T18:24:10.700Z,31.04
2018-06-30T18:26:39.914Z,30.21
2018-06-30T18:29:09.092Z,31.75
2018-06-30T18:31:38.419Z,32.33
2018-06-30T18:34:07.639Z,32.97
2018-06-30T18:36:36.745Z,34.03
2018-06-30T18:39:09.021Z,34.79
2018-06-30T18:41:38.237Z,34.16
2018-06-30T18:44:10.623Z,34.06
2018-06-30T18:46:39.891Z,35.01
2018-06-30T18:49:08.849Z,34.79
2018-06-30T18:51:38.316Z,34.35
2018-06-30T18:54:08.793Z,35.82
2018-06-30T18:56:38.141Z,37.51
2018-06-30T18:59:07.774Z,36.90
2018-06-30T19:01:37.317Z,37.43
2018-06-30T19:04:07.388Z,37.77
2018-06-30T19:06:36.800Z,38.04
2018-06-30T19:09:09.137Z,38.64
2018-06-30T19:11:38.593Z,38.48
2018-06-30T19:14:08.756Z,39.12
2018-06-30T19:16:38.143Z,39.91
2018-06-30T19:19:08.013Z,40.22
2018-06-30T19:21:36.885Z,40.82
2018-06-30T19:24:06.246Z,42.23
2018-06-30T19:26:35.414Z,41.80
2018-06-30T19:29:04.529Z,42.73
2018-06-30T19:31:44.260Z,42.06
2018-06-30T19:34:13.989Z,42.79
2018-06-30T19:36:43.245Z,42.84
2018-06-30T19:39:15.154Z,42.18
2018-06-30T19:41:49.220Z,42.57
2018-06-30T19:44:18.277Z,42.50
2018-06-30T19:46:46.790Z,43.37
2018-06-30T19:49:17.054Z,44.36
2018-06-30T19:51:45.918Z,44.00
2018-06-30T19:54:14.466Z,43.79
2018-06-30T19:56:42.993Z,43.86
2018-06-30T19:59:11.541Z,44.56
2018-06-30T20:01:40.061Z,45.39
2018-06-30T20:04:08.697Z,45.66
2018-06-30T20:06:37.217Z,45.40
2018-06-30T20:09:10.277Z,45.41
2018-06-30T20:11:38.810Z,45.60
2018-06-30T20:14:07.709Z,45.38
2018-06-30T20:16:36.269Z,44.71
2018-06-30T20:19:04.849Z,44.56
2018-06-30T20:21:33.403Z,44.63
2018-06-30T20:24:02.033Z,46.12
2018-06-30T20:26:30.637Z,45.31
2018-06-30T20:28:59.438Z,45.60
2018-06-30T20:31:27.973Z,45.20
2018-06-30T20:33:57.626Z,44.89
2018-06-30T20:36:26.645Z,44.35
2018-06-30T20:38:55.185Z,44.95
2018-06-30T20:41:24.649Z,45.40
2018-06-30T20:43:53.669Z,45.07
2018-06-30T20:46:22.185Z,44.15
2018-06-30T20:48:52.416Z,44.58
2018-06-30T20:51:21.044Z,43.82
2018-06-30T20:53:49.605Z,43.29
2018-06-30T20:56:20.208Z,43.67
2018-06-30T20:58:50.324Z,43.88
2018-06-30T21:01:19.030Z,44.10
2018-06-30T21:03:47.526Z,43.56
2018-06-30T21:06:17.279Z,43.55
2018-06-30T21:08:45.904Z,43.57
2018-06-30T21:11:14.787Z,43.77
2018-06-30T21:13:46.556Z,43.70
2018-06-30T21:16:16.257Z,43.46
2018-06-30T21:18:46.396Z,43.27
2018-06-30T21:21:15.078Z,42.96
2018-06-30T21:23:43.628Z,42.94
2018-06-30T21:26:12.198Z,43.46
2018-06-30T21:28:40.728Z,42.53
2018-06-30T21:31:09.285Z,42.29
2018-06-30T21:33:37.816Z,41.68
2018-06-30T21:36:06.397Z,42.35
2018-06-30T21:38:34.930Z,42.18
2018-06-30T21:41:03.520Z,41.65
2018-06-30T21:43:32.030Z,41.97
2018-06-30T21:46:00.583Z,42.45
2018-06-30T21:48:29.496Z,41.57
2018-06-30T21:50:58.048Z,41.79
2018-06-30T21:53:27.151Z,41.45
2018-06-30T21:56:01.287Z,40.83
2018-06-30T21:58:33.644Z,41.46
2018-06-30T22:01:09.597Z,40.48
2018-06-30T22:03:39.241Z,41.20
2018-06-30T22:06:09.214Z,40.95
2018-06-30T22:08:39.079Z,40.81
2018-06-30T22:11:08.650Z,40.32
2018-06-30T22:13:37.434Z,40.15
2018-06-30T22:16:07.618Z,40.32
2018-06-30T22:18:39.295Z,40.26
2018-06-30T22:21:12.123Z,39.47
2018-06-30T22:23:43.568Z,39.32
2018-06-30T22:26:14.506Z,39.05
2018-06-30T22:28:44.247Z,39.03
2018-06-30T22:31:14.944Z,39.31
2018-06-30T22:33:45.760Z,39.22
2018-06-30T22:36:15.624Z,38.49
2018-06-30T22:38:48.939Z,39.13
2018-06-30T22:41:18.388Z,39.05
2018-06-30T22:43:46.965Z,39.09
2018-06-30T22:46:18.474Z,38.83
2018-06-30T22:48:47.017Z,38.59
2018-06-30T22:51:15.620Z,38.57
2018-06-30T22:53:44.147Z,37.86
2018-06-30T22:56:13.345Z,38.83
2018-06-30T22:58:41.868Z,37.52
2018-06-30T23:01:10.568Z,38.24
2018-06-30T23:03:41.418Z,37.90
2018-06-30T23:06:10.117Z,38.05
2018-06-30T23:08:44.185Z,37.90
2018-06-30T23:11:12.757Z,37.14
2018-06-30T23:13:41.277Z,37.91
2018-06-30T23:16:09.826Z,38.18
2018-06-30T23:18:38.400Z,38.38
2018-06-30T23:21:06.956Z,37.88
2018-06-30T23:23:35.536Z,37.76
2018-06-30T23:26:04.085Z,37.18
2018-06-30T23:28:32.628Z,38.13
2018-06-30T23:31:01.159Z,36.64
2018-06-30T23:33:29.704Z,36.55
2018-06-30T23:35:58.240Z,36.67
2018-06-30T23:38:26.961Z,37.22
2018-06-30T23:40:55.513Z,37.51
2018-06-30T23:43:24.133Z,37.09
2018-06-30T23:45:52.648Z,37.78
2018-06-30T23:48:21.204Z,37.94
2018-06-30T23:50:49.713Z,36.77
2018-06-30T23:53:18.256Z,37.81
2018-06-30T23:55:46.848Z,37.12
2018-06-30T23:58:15.388Z,37.44
